createdAt,value
2023-04-17T00:00:18.941Z,100998.91
2023-04-17T00:02:46.448Z,100983.22
2023-04-17T00:05:13.575Z,100985.75
2023-04-17T00:07:41.204Z,100975.66
2023-04-17T00:10:09.032Z,100985.38
2023-04-17T00:12:35.840Z,100985.06
2023-04-17T00:15:02.651Z,100982.69
2023-04-17T00:17:29.200Z,100981.09
2023-04-17T00:19:55.837Z,100978.88
2023-04-17T00:22:22.470Z,100979.97
2023-04-17T00:24:49.055Z,100974.03
2023-04-17T00:27:15.609Z,100975.91
2023-04-17T00:29:42.248Z,100981.81
2023-04-17T00:32:08.976Z,100977.31
2023-04-17T00:34:35.631Z,100974.56
2023-04-17T00:37:02.283Z,100967.94
2023-04-17T00:39:28.839Z,100973.44
2023-04-17T00:41:56.470Z,100977.31
2023-04-17T00:44:23.016Z,100973.16
2023-04-17T00:46:49.580Z,100952.66
2023-04-17T00:49:16.118Z,100972.53
2023-04-17T00:51:42.674Z,100978.34
2023-04-17T00:54:09.320Z,100977.53
2023-04-17T00:56:35.848Z,100970.16
2023-04-17T00:59:02.445Z,100972.41
2023-04-17T01:01:29.154Z,100972.41
2023-04-17T01:03:55.932Z,100970.78
2023-04-17T01:06:22.514Z,100965.03
2023-04-17T01:08:49.110Z,100968.31
2023-04-17T01:11:15.849Z,100970.03
2023-04-17T01:13:48.966Z,100970.78
2023-04-17T01:16:16.272Z,100968.63
2023-04-17T01:18:42.844Z,100964.16
2023-04-17T01:21:09.477Z,100971.81
2023-04-17T01:24:00.801Z,100935.69
2023-04-17T01:26:29.164Z,100961.31
2023-04-17T01:28:57.262Z,100962.22
2023-04-17T01:31:24.667Z,100958.66
2023-04-17T01:33:52.169Z,100960.81
2023-04-17T01:36:18.925Z,100973.44
2023-04-17T01:38:45.531Z,100968.97
2023-04-17T01:41:12.517Z,100966.59
2023-04-17T01:43:40.402Z,100957.66
2023-04-17T01:46:07.116Z,100973.81
2023-04-17T01:48:34.166Z,100980.94
2023-04-17T01:51:00.895Z,100969.94
2023-04-17T01:53:29.089Z,100971.16
2023-04-17T01:55:55.780Z,100946.31
2023-04-17T01:58:22.953Z,100975.22
2023-04-17T02:00:49.801Z,100977.38
2023-04-17T02:03:16.933Z,100972.41
2023-04-17T02:05:47.343Z,100967.94
2023-04-17T02:08:14.179Z,100970.25
2023-04-17T02:10:41.828Z,100971.88
2023-04-17T02:13:09.027Z,100968.91
2023-04-17T02:15:36.479Z,100967.50
2023-04-17T02:18:03.807Z,100962.34
2023-04-17T02:20:30.437Z,100969.22
2023-04-17T02:22:58.991Z,100974.72
2023-04-17T02:25:25.648Z,100975.78
2023-04-17T02:27:54.149Z,100967.31
2023-04-17T02:30:20.784Z,100972.53
2023-04-17T02:32:47.347Z,100973.34
2023-04-17T02:35:14.053Z,100963.25
2023-04-17T02:37:40.701Z,100972.53
2023-04-17T02:40:08.234Z,100967.03
2023-04-17T02:42:34.827Z,100946.84
2023-04-17T02:45:04.205Z,100966.47
2023-04-17T02:47:30.945Z,100970.28
2023-04-17T02:50:00.059Z,100965.09
2023-04-17T02:52:30.925Z,100951.22
2023-04-17T02:54:58.112Z,100953.69
2023-04-17T02:57:25.695Z,100973.13
2023-04-17T02:59:52.459Z,100967.63
2023-04-17T03:02:22.081Z,100965.41
2023-04-17T03:04:50.247Z,100952.66
2023-04-17T03:07:19.406Z,100963.75
2023-04-17T03:09:47.023Z,100960.00
2023-04-17T03:12:14.568Z,100961.81
2023-04-17T03:14:41.240Z,100969.25
2023-04-17T03:17:08.246Z,100963.75
2023-04-17T03:19:34.887Z,100965.41
2023-04-17T03:22:04.257Z,100970.91
2023-04-17T03:24:31.528Z,100972.31
2023-04-17T03:26:59.245Z,100969.84
2023-04-17T03:29:29.391Z,100969.25
2023-04-17T03:31:56.122Z,100966.81
2023-04-17T03:34:23.070Z,100970.06
2023-04-17T03:36:50.074Z,100970.06
2023-04-17T03:39:16.706Z,100970.91
2023-04-17T03:41:43.271Z,100975.28
2023-04-17T03:44:10.688Z,100973.13
2023-04-17T03:46:37.689Z,100972.00
2023-04-17T03:49:04.721Z,100978.03
2023-04-17T03:51:32.718Z,100983.22
2023-04-17T03:54:07.239Z,100975.78
2023-04-17T03:56:33.881Z,100962.72
2023-04-17T03:59:00.542Z,100977.97
2023-04-17T04:01:28.396Z,100984.03
2023-04-17T04:04:10.326Z,100990.09
2023-04-17T04:06:37.685Z,100991.69
2023-04-17T04:09:05.441Z,100982.16
2023-04-17T04:11:32.006Z,100987.88
2023-04-17T04:13:58.674Z,100972.09
2023-04-17T04:16:25.430Z,100993.94
2023-04-17T04:18:57.346Z,100987.88
2023-04-17T04:21:23.917Z,100969.03
2023-04-17T04:23:51.053Z,101004.34
2023-04-17T04:26:21.712Z,100993.34
2023-04-17T04:28:51.749Z,100996.00
2023-04-17T04:31:30.508Z,101001.28
2023-04-17T04:33:59.443Z,100997.72
2023-04-17T04:36:30.166Z,100992.25
2023-04-17T04:39:10.364Z,101009.91
2023-04-17T04:41:38.108Z,100998.47
2023-04-17T04:44:07.937Z,101000.47
2023-04-17T04:46:37.436Z,101006.63
2023-04-17T04:49:04.520Z,101008.03
2023-04-17T04:51:33.276Z,101009.16
2023-04-17T04:54:02.366Z,101013.63
2023-04-17T04:56:31.699Z,101009.47
2023-04-17T04:58:59.373Z,101008.34
2023-04-17T05:01:27.853Z,101011.38
2023-04-17T05:03:55.545Z,101018.22
2023-04-17T05:06:27.812Z,101017.41
2023-04-17T05:08:59.047Z,101021.28
2023-04-17T05:11:26.065Z,101019.13
2023-04-17T05:13:52.615Z,101026.22
2023-04-17T05:16:24.407Z,101025.09
2023-04-17T05:18:51.218Z,101003.81
2023-04-17T05:21:25.825Z,101027.69
2023-04-17T05:23:52.519Z,101028.81
2023-04-17T05:26:21.875Z,101036.78
2023-04-17T05:28:48.942Z,101030.53
2023-04-17T05:31:21.437Z,101022.34
2023-04-17T05:33:48.232Z,101007.53
2023-04-17T05:36:15.097Z,101031.78
2023-04-17T05:38:42.521Z,101029.13
2023-04-17T05:41:10.548Z,101023.31
2023-04-17T05:43:37.222Z,101031.63
2023-04-17T05:46:03.888Z,101027.03
2023-04-17T05:48:31.178Z,101030.91
2023-04-17T05:50:58.872Z,101026.44
2023-04-17T05:53:26.147Z,101031.13
2023-04-17T05:55:56.549Z,101034.97
2023-04-17T05:58:24.714Z,101022.34
2023-04-17T06:00:54.971Z,101028.38
2023-04-17T06:03:22.913Z,101032.97
2023-04-17T06:05:57.158Z,101029.69
2023-04-17T06:08:24.719Z,101019.91
2023-04-17T06:10:52.204Z,101032.97
2023-04-17T06:13:18.938Z,101027.47
2023-04-17T06:15:49.414Z,101034.09
2023-04-17T06:18:17.515Z,101033.50
2023-04-17T06:20:45.272Z,101041.31
2023-04-17T06:23:11.950Z,101024.34
2023-04-17T06:25:38.587Z,101037.50
2023-04-17T06:28:05.497Z,101041.81
2023-04-17T06:30:32.056Z,101039.66
2023-04-17T06:32:58.783Z,101029.03
2023-04-17T06:35:25.532Z,101041.31
2023-04-17T06:37:57.828Z,101033.66
2023-04-17T06:40:24.521Z,101041.81
2023-04-17T06:42:51.752Z,101029.25
2023-04-17T06:45:20.597Z,101020.91
2023-04-17T06:47:47.244Z,101044.13
2023-04-17T06:50:16.967Z,101048.94
2023-04-17T06:52:43.543Z,101040.47
2023-04-17T06:55:10.559Z,101029.63
2023-04-17T06:57:38.098Z,101046.28
2023-04-17T07:00:05.276Z,101020.69
2023-04-17T07:02:31.989Z,101049.25
2023-04-17T07:04:58.735Z,101051.41
2023-04-17T07:07:25.876Z,101046.19
2023-04-17T07:09:52.442Z,101045.59
2023-04-17T07:12:19.035Z,101048.13
2023-04-17T07:14:45.730Z,101040.78
2023-04-17T07:17:12.268Z,101052.22
2023-04-17T07:19:39.115Z,101047.63
2023-04-17T07:22:05.696Z,101053.13
2023-04-17T07:24:35.168Z,101054.53
2023-04-17T07:27:02.838Z,101033.34
2023-04-17T07:29:29.577Z,101058.41
2023-04-17T07:31:56.477Z,101058.91
2023-04-17T07:34:25.165Z,101067.72
2023-04-17T07:36:54.796Z,101071.22
2023-04-17T07:39:21.409Z,101071.00
2023-04-17T07:41:49.077Z,101073.53
2023-04-17T07:44:16.101Z,101072.78
2023-04-17T07:46:43.139Z,101074.41
2023-04-17T07:49:12.099Z,101075.25
2023-04-17T07:51:41.272Z,101077.69
2023-04-17T07:54:08.121Z,101073.22
2023-04-17T07:56:34.979Z,101077.84
2023-04-17T07:59:02.451Z,101074.56
2023-04-17T08:01:29.105Z,101085.34
2023-04-17T08:03:55.927Z,101077.19
2023-04-17T08:06:22.776Z,101082.38
2023-04-17T08:08:49.356Z,101080.19
2023-04-17T08:11:16.233Z,101084.03
2023-04-17T08:13:42.834Z,101081.72
2023-04-17T08:16:10.036Z,101088.63
2023-04-17T08:18:37.805Z,101090.03
2023-04-17T08:21:04.627Z,101097.16
2023-04-17T08:23:31.394Z,101098.78
2023-04-17T08:25:58.417Z,101091.69
2023-04-17T08:28:25.180Z,101106.94
2023-04-17T08:30:52.099Z,101086.41
2023-04-17T08:33:18.820Z,101102.97
2023-04-17T08:35:45.622Z,101107.28
2023-04-17T08:38:14.483Z,101103.41
2023-04-17T08:40:42.896Z,101103.91
2023-04-17T08:43:16.429Z,101095.75
2023-04-17T08:45:53.582Z,101073.09
2023-04-17T08:48:21.139Z,101100.00
2023-04-17T08:50:50.000Z,101106.16
2023-04-17T08:53:17.219Z,101097.97
2023-04-17T08:55:44.626Z,101093.16
2023-04-17T08:58:11.337Z,101096.66
2023-04-17T09:00:42.011Z,101075.69
2023-04-17T09:03:11.163Z,101094.19
2023-04-17T09:05:39.902Z,101093.00
2023-04-17T09:08:10.627Z,101097.47
2023-04-17T09:10:38.642Z,101092.56
2023-04-17T09:13:05.720Z,101097.31
2023-04-17T09:15:33.254Z,101090.63
2023-04-17T09:17:59.981Z,101088.69
2023-04-17T09:20:26.631Z,101091.13
2023-04-17T09:23:00.638Z,101093.19
2023-04-17T09:25:28.140Z,101098.44
2023-04-17T09:27:55.796Z,101079.28
2023-04-17T09:30:24.730Z,101090.50
2023-04-17T09:32:53.442Z,101091.78
2023-04-17T09:35:24.418Z,101074.16
2023-04-17T09:37:54.903Z,101097.63
2023-04-17T09:40:22.392Z,101092.25
2023-04-17T09:42:59.581Z,101094.88
2023-04-17T09:45:35.322Z,101070.97
2023-04-17T09:48:06.148Z,101078.00
2023-04-17T09:50:32.902Z,101085.41
2023-04-17T09:52:59.477Z,101084.03
2023-04-17T09:55:32.493Z,101088.97
2023-04-17T09:58:00.811Z,101085.56
2023-04-17T10:00:27.597Z,101066.22
2023-04-17T10:02:54.846Z,101081.72
2023-04-17T10:05:26.958Z,101083.94
2023-04-17T10:07:53.505Z,101081.72
2023-04-17T10:10:33.872Z,101084.38
2023-04-17T10:13:02.074Z,101074.81
2023-04-17T10:15:29.103Z,101056.25
2023-04-17T10:17:57.394Z,101079.91
2023-04-17T10:20:23.893Z,101080.53
2023-04-17T10:22:56.987Z,101063.53
2023-04-17T10:25:27.183Z,101071.66
2023-04-17T10:28:00.352Z,101070.78
2023-04-17T10:30:55.377Z,101067.81
2023-04-17T10:33:26.075Z,101072.19
2023-04-17T10:35:52.836Z,101054.69
2023-04-17T10:38:32.749Z,101060.25
2023-04-17T10:41:01.182Z,101042.66
2023-04-17T10:43:27.779Z,101053.50
2023-04-17T10:46:00.228Z,101053.50
2023-04-17T10:48:28.335Z,101060.41
2023-04-17T10:50:55.773Z,101054.69
2023-04-17T10:53:44.302Z,101040.03
2023-04-17T10:56:11.813Z,101055.72
2023-04-17T10:58:39.582Z,101048.00
2023-04-17T11:01:09.989Z,101051.84
2023-04-17T11:03:37.417Z,101050.00
2023-04-17T11:06:04.354Z,101042.66
2023-04-17T11:08:30.955Z,101053.56
2023-04-17T11:10:57.706Z,101055.50
2023-04-17T11:13:24.372Z,101026.53
2023-04-17T11:15:50.940Z,101050.22
2023-04-17T11:18:18.398Z,101044.19
2023-04-17T11:20:45.190Z,101053.50
2023-04-17T11:23:11.821Z,101047.09
2023-04-17T11:25:40.160Z,101041.97
2023-04-17T11:28:06.930Z,101055.13
2023-04-17T11:30:34.733Z,101048.44
2023-04-17T11:33:03.304Z,101049.69
2023-04-17T11:35:31.460Z,101046.03
2023-04-17T11:38:21.034Z,101055.81
2023-04-17T11:40:53.098Z,101052.41
2023-04-17T11:43:20.672Z,101048.16
2023-04-17T11:45:50.551Z,101045.59
2023-04-17T11:48:19.850Z,101049.13
2023-04-17T11:50:46.447Z,101054.09
2023-04-17T11:53:14.938Z,101046.72
2023-04-17T11:55:41.816Z,101056.28
2023-04-17T11:58:09.704Z,101055.47
2023-04-17T12:00:40.683Z,101058.78
2023-04-17T12:03:32.713Z,101055.59
2023-04-17T12:06:00.618Z,101057.91
2023-04-17T12:08:27.642Z,101056.56
2023-04-17T12:10:54.269Z,101042.81
2023-04-17T12:13:21.125Z,101052.03
2023-04-17T12:15:47.769Z,101053.84
2023-04-17T12:18:14.446Z,101046.16
2023-04-17T12:20:44.166Z,101050.53
2023-04-17T12:23:11.640Z,101044.88
2023-04-17T12:25:38.793Z,101038.78
2023-04-17T12:28:05.943Z,101039.38
2023-04-17T12:30:35.942Z,101046.91
2023-04-17T12:33:03.069Z,101049.31
2023-04-17T12:35:29.957Z,101041.38
2023-04-17T12:37:56.713Z,101038.94
2023-04-17T12:40:24.844Z,101044.88
2023-04-17T12:42:51.851Z,101034.25
2023-04-17T12:45:19.012Z,101042.06
2023-04-17T12:47:46.104Z,101039.53
2023-04-17T12:50:12.953Z,101034.81
2023-04-17T12:52:40.114Z,101031.69
2023-04-17T12:55:07.632Z,101037.19
2023-04-17T12:57:35.463Z,101031.25
2023-04-17T13:00:02.459Z,101029.91
2023-04-17T13:02:29.344Z,101028.88
2023-04-17T13:04:56.581Z,101028.38
2023-04-17T13:07:23.267Z,101009.00
2023-04-17T13:09:49.952Z,101035.41
2023-04-17T13:12:16.619Z,101031.63
2023-04-17T13:14:43.449Z,101031.34
2023-04-17T13:17:10.319Z,101029.69
2023-04-17T13:19:38.001Z,101028.75
2023-04-17T13:22:04.742Z,101034.09
2023-04-17T13:24:31.420Z,101036.84
2023-04-17T13:26:58.275Z,101037.44
2023-04-17T13:29:25.321Z,101023.16
2023-04-17T13:31:51.986Z,101028.66
2023-04-17T13:34:19.343Z,101019.91
2023-04-17T13:36:46.826Z,101015.03
2023-04-17T13:39:13.783Z,101017.78
2023-04-17T13:41:40.608Z,101018.78
2023-04-17T13:44:07.221Z,101018.25
2023-04-17T13:46:34.442Z,101021.53
2023-04-17T13:49:01.134Z,101020.94
2023-04-17T13:51:27.857Z,101024.81
2023-04-17T13:53:54.574Z,101012.28
2023-04-17T13:56:23.465Z,101011.94
2023-04-17T13:58:52.135Z,101012.81
2023-04-17T14:01:19.051Z,101010.22
2023-04-17T14:03:46.464Z,101010.22
2023-04-17T14:06:13.319Z,101003.09
2023-04-17T14:08:40.665Z,101005.13
2023-04-17T14:11:08.453Z,101007.34
2023-04-17T14:13:35.208Z,101005.72
2023-04-17T14:16:02.005Z,101010.22
2023-04-17T14:18:28.677Z,101008.66
2023-04-17T14:20:55.455Z,101007.78
2023-04-17T14:23:22.056Z,101008.72
2023-04-17T14:25:48.858Z,101009.50
2023-04-17T14:28:16.162Z,101012.59
2023-04-17T14:30:42.768Z,101001.69
2023-04-17T14:33:09.382Z,101011.56
2023-04-17T14:35:36.042Z,101010.91
2023-04-17T14:38:05.018Z,101015.81
2023-04-17T14:40:31.890Z,101006.38
2023-04-17T14:42:58.546Z,101003.78
2023-04-17T14:45:25.494Z,101005.06
2023-04-17T14:47:52.598Z,101001.63
2023-04-17T14:50:19.198Z,100992.75
2023-04-17T14:52:45.919Z,101002.31
2023-04-17T14:55:13.169Z,100996.00
2023-04-17T14:57:39.847Z,101000.31
2023-04-17T15:00:07.947Z,100989.69
2023-04-17T15:02:38.542Z,101002.84
2023-04-17T15:05:06.401Z,101002.34
2023-04-17T15:07:33.109Z,101010.00
2023-04-17T15:09:59.767Z,101003.09
2023-04-17T15:12:26.935Z,100984.31
2023-04-17T15:14:53.622Z,101015.31
2023-04-17T15:17:20.336Z,101015.84
2023-04-17T15:19:47.009Z,101004.53
2023-04-17T15:22:13.563Z,101008.41
2023-04-17T15:24:40.203Z,101007.88
2023-04-17T15:27:06.851Z,101008.09
2023-04-17T15:29:33.536Z,101000.66
2023-04-17T15:32:01.681Z,101021.84
2023-04-17T15:34:28.365Z,101013.31
2023-04-17T15:36:55.095Z,101017.69
2023-04-17T15:39:21.700Z,101004.53
2023-04-17T15:41:48.711Z,101013.53
2023-04-17T15:44:15.223Z,101019.84
2023-04-17T15:46:41.876Z,101008.91
2023-04-17T15:49:09.360Z,101011.59
2023-04-17T15:51:36.293Z,101007.72
2023-04-17T15:54:02.847Z,101011.06
2023-04-17T15:56:29.429Z,101009.13
2023-04-17T15:58:56.110Z,101009.44
2023-04-17T16:01:22.797Z,101013.53
2023-04-17T16:03:49.518Z,101006.16
2023-04-17T16:06:16.273Z,101003.34
2023-04-17T16:08:42.860Z,101013.22
2023-04-17T16:11:10.837Z,101015.97
2023-04-17T16:13:37.408Z,101015.16
2023-04-17T16:16:04.205Z,101008.84
2023-04-17T16:18:30.970Z,101014.34
2023-04-17T16:20:57.652Z,101017.56
2023-04-17T16:23:24.225Z,101007.41
2023-04-17T16:25:51.211Z,101012.59
2023-04-17T16:28:17.815Z,101014.94
2023-04-17T16:30:44.406Z,100997.81
2023-04-17T16:33:11.000Z,100988.03
2023-04-17T16:35:37.636Z,101001.19
2023-04-17T16:38:04.251Z,101008.78
2023-04-17T16:40:31.037Z,101007.22
2023-04-17T16:42:57.890Z,101003.75
2023-04-17T16:45:24.530Z,101012.06
2023-04-17T16:47:51.239Z,101002.81
2023-04-17T16:50:17.965Z,100988.94
2023-04-17T16:52:44.592Z,101014.22
2023-04-17T16:55:14.207Z,101002.19
2023-04-17T16:57:43.707Z,100990.50
2023-04-17T17:00:11.090Z,101018.00
2023-04-17T17:02:37.816Z,101004.78
2023-04-17T17:05:04.879Z,101013.91
2023-04-17T17:07:31.541Z,101023.16
2023-04-17T17:09:58.182Z,101028.88
2023-04-17T17:12:24.897Z,101024.19
2023-04-17T17:14:51.567Z,100987.38
2023-04-17T17:17:18.228Z,101021.38
2023-04-17T17:19:44.839Z,101027.69
2023-04-17T17:22:11.484Z,101019.97
2023-04-17T17:24:38.108Z,101020.34
2023-04-17T17:27:04.708Z,101022.66
2023-04-17T17:29:31.268Z,101027.63
2023-04-17T17:31:58.026Z,101033.94
2023-04-17T17:34:26.813Z,101038.19
2023-04-17T17:36:54.096Z,101034.56
2023-04-17T17:39:22.051Z,101039.38
2023-04-17T17:41:48.974Z,101031.22
2023-04-17T17:44:18.594Z,101034.41
2023-04-17T17:46:48.331Z,101035.88
2023-04-17T17:49:14.930Z,101038.41
2023-04-17T17:51:41.990Z,101044.47
2023-04-17T17:54:08.619Z,101033.56
2023-04-17T17:56:35.338Z,101040.09
2023-04-17T17:59:02.121Z,101050.25
2023-04-17T18:01:29.091Z,101038.75
2023-04-17T18:03:56.702Z,101038.16
2023-04-17T18:06:25.954Z,101031.47
2023-04-17T18:08:52.963Z,101047.28
2023-04-17T18:11:20.414Z,101042.94
2023-04-17T18:13:47.104Z,101045.66
2023-04-17T18:16:14.059Z,101037.44
2023-04-17T18:18:41.243Z,101045.34
2023-04-17T18:21:08.385Z,101056.47
2023-04-17T18:23:35.521Z,101042.22
2023-04-17T18:26:02.881Z,101057.00
2023-04-17T18:28:29.770Z,101054.84
2023-04-17T18:31:00.242Z,101054.09
2023-04-17T18:33:29.508Z,101032.41
2023-04-17T18:36:01.858Z,101065.09
2023-04-17T18:38:28.625Z,101052.97
2023-04-17T18:40:59.499Z,101064.72
2023-04-17T18:43:26.131Z,101062.09
2023-04-17T18:45:52.800Z,101068.19
2023-04-17T18:48:19.593Z,101073.66
2023-04-17T18:50:46.300Z,101074.03
2023-04-17T18:53:13.029Z,101064.06
2023-04-17T18:55:39.688Z,101077.84
2023-04-17T18:58:06.378Z,101071.81
2023-04-17T19:00:33.121Z,101075.31
2023-04-17T19:02:59.807Z,101076.56
2023-04-17T19:05:27.251Z,101073.75
2023-04-17T19:07:54.051Z,101080.97
2023-04-17T19:10:20.831Z,101069.16
2023-04-17T19:12:47.948Z,101075.31
2023-04-17T19:15:17.485Z,101072.34
2023-04-17T19:17:44.209Z,101076.66
2023-04-17T19:20:10.972Z,101078.28
2023-04-17T19:22:37.738Z,101076.22
2023-04-17T19:25:04.588Z,101073.25
2023-04-17T19:27:31.255Z,101076.59
2023-04-17T19:29:58.038Z,101068.34
2023-04-17T19:32:24.783Z,101077.94
2023-04-17T19:34:51.518Z,101079.47
2023-04-17T19:37:18.159Z,101082.75
2023-04-17T19:39:44.761Z,101080.53
2023-04-17T19:42:11.781Z,101085.50
2023-04-17T19:44:38.429Z,101080.31
2023-04-17T19:47:05.909Z,101077.31
2023-04-17T19:49:32.600Z,101079.56
2023-04-17T19:52:00.974Z,101069.81
2023-04-17T19:54:27.793Z,101079.03
2023-04-17T19:56:54.445Z,101079.78
2023-04-17T19:59:21.083Z,101082.91
2023-04-17T20:01:51.344Z,101080.19
2023-04-17T20:04:18.356Z,101074.66
2023-04-17T20:06:45.288Z,101078.00
2023-04-17T20:09:14.062Z,101077.31
2023-04-17T20:11:41.554Z,101079.63
2023-04-17T20:14:08.083Z,101075.25
2023-04-17T20:16:34.790Z,101067.13
2023-04-17T20:19:01.509Z,101084.03
2023-04-17T20:21:28.276Z,101068.63
2023-04-17T20:23:55.353Z,101070.19
2023-04-17T20:26:22.089Z,101073.81
2023-04-17T20:28:49.413Z,101073.16
2023-04-17T20:31:16.384Z,101068.69
2023-04-17T20:33:43.079Z,101067.06
2023-04-17T20:36:09.746Z,101076.56
2023-04-17T20:38:36.439Z,101075.75
2023-04-17T20:41:03.026Z,101073.06
2023-04-17T20:43:31.867Z,101068.81
2023-04-17T20:45:59.149Z,101068.66
2023-04-17T20:48:25.967Z,101064.06
2023-04-17T20:50:52.557Z,101063.81
2023-04-17T20:53:19.139Z,101066.25
2023-04-17T20:55:47.003Z,101054.84
2023-04-17T20:58:13.735Z,101059.38
2023-04-17T21:00:50.703Z,101064.91
2023-04-17T21:03:29.179Z,101062.47
2023-04-17T21:05:55.895Z,101058.69
2023-04-17T21:08:22.419Z,101060.31
2023-04-17T21:10:52.025Z,101058.69
2023-04-17T21:13:18.646Z,101054.31
2023-04-17T21:15:45.332Z,101055.41
2023-04-17T21:18:11.938Z,101058.75
2023-04-17T21:20:38.965Z,101047.28
2023-04-17T21:23:05.600Z,101052.97
2023-04-17T21:25:32.173Z,101055.19
2023-04-17T21:27:58.761Z,101049.97
2023-04-17T21:30:27.219Z,101044.03
2023-04-17T21:32:57.227Z,101052.47
2023-04-17T21:35:27.196Z,101047.81
2023-04-17T21:37:53.811Z,101050.03
2023-04-17T21:40:20.436Z,101051.16
2023-04-17T21:42:47.034Z,101056.56
2023-04-17T21:45:14.240Z,101049.22
2023-04-17T21:47:43.849Z,101056.88
2023-04-17T21:50:10.753Z,101058.75
2023-04-17T21:52:37.416Z,101057.13
2023-04-17T21:55:05.618Z,101052.47
2023-04-17T21:57:32.243Z,101057.38
2023-04-17T21:59:58.905Z,101038.03
2023-04-17T22:02:25.830Z,101052.47
2023-04-17T22:04:52.525Z,101056.56
2023-04-17T22:07:21.271Z,101058.19
2023-04-17T22:09:48.332Z,101054.06
2023-04-17T22:12:15.073Z,101043.97
2023-04-17T22:14:41.622Z,101056.00
2023-04-17T22:17:08.157Z,101054.38
2023-04-17T22:19:34.776Z,101047.78
2023-04-17T22:22:01.322Z,101057.03
2023-04-17T22:24:27.831Z,101051.34
2023-04-17T22:26:54.488Z,101052.69
2023-04-17T22:29:21.019Z,101056.00
2023-04-17T22:31:49.391Z,101044.47
2023-04-17T22:34:16.021Z,101051.88
2023-04-17T22:36:42.550Z,101046.41
2023-04-17T22:39:09.141Z,101056.56
2023-04-17T22:41:35.732Z,101033.25
2023-04-17T22:44:03.824Z,101048.91
2023-04-17T22:46:30.423Z,101051.06
2023-04-17T22:48:58.042Z,101050.53
2023-04-17T22:51:24.653Z,101053.56
2023-04-17T22:53:51.261Z,101051.88
2023-04-17T22:56:17.766Z,101051.06
2023-04-17T22:58:44.319Z,101058.19
2023-04-17T23:01:11.169Z,101054.41
2023-04-17T23:03:37.791Z,101036.50
2023-04-17T23:06:04.812Z,101047.34
2023-04-17T23:08:31.416Z,101055.53
2023-04-17T23:11:01.058Z,101051.16
2023-04-17T23:13:27.863Z,101053.31
2023-04-17T23:15:54.507Z,101033.72
2023-04-17T23:18:21.096Z,101047.56
2023-04-17T23:20:47.683Z,101046.19
2023-04-17T23:23:14.312Z,101044.25
2023-04-17T23:25:40.917Z,101041.28
2023-04-17T23:28:07.462Z,101042.94
2023-04-17T23:30:34.024Z,101043.44
2023-04-17T23:33:00.798Z,101036.91
2023-04-17T23:35:27.476Z,101048.41
2023-04-17T23:37:54.056Z,101038.25
2023-04-17T23:40:20.618Z,101032.53
2023-04-17T23:42:47.206Z,101039.66
2023-04-17T23:45:14.177Z,101028.66
2023-04-17T23:47:40.841Z,101029.25
2023-04-17T23:50:07.923Z,101033.13
2023-04-17T23:52:34.633Z,101030.97
2023-04-17T23:55:01.554Z,101021.09
2023-04-17T23:57:28.172Z,101028.81
2023-04-17T23:59:54.724Z,101028.13
